Latest Weather Observations for Davis (Whoop Whoop)*

IDT60801

Issued at 10:35 pm EDT Thursday 27 November 2014 (issued every 30 minutes, with the page automatically refreshed every 10 minutes)

About weather observations | Map of weather stations | Latest weather observations for ANT | Other Formats
Station Details ID: 300055 Name: DAVIS (WHOOP WHOOP) Lat: -68.48 Lon: 78.82 Height: 545.0 m
Data from the previous 72 hours. | See also: Recent months for locations in Antarctica
Date/Time
EDT
Temp
°C
App
Temp
°C
Dew
Point
Rel
Hum
%
Delta-T
°C
Wind Press
QNH
hPa
Press
MSL
hPa
Rain
since 9 am
mm
Dir
 
Spd
km/h
Gust
km/h
Spd
kts
Gust
kts
27/10:00pm -4.2 -12.6 -9.8 65 - ENE 28 33 15 18 978.2 - -
27/09:30pm -4.2 -12.9 -9.8 65 - ENE 30 35 16 19 978.5 - -
27/09:00pm -4.3 -13.6 -9.9 65 - ENE 33 39 18 21 978.6 - -
27/08:30pm -4.5 -14.2 -10.1 65 - ENE 35 41 19 22 978.6 - -
27/08:00pm -4.6 -14.3 -10.4 64 - ENE 35 41 19 22 978.8 - -
27/07:30pm -4.5 -13.9 -10.5 63 - ENE 33 41 18 22 978.9 - -
27/07:00pm -4.5 -14.6 -9.7 67 - ENE 37 46 20 25 980.5 - -
27/06:58pm -4.6 -14.7 -10.4 64 - ENE 37 46 20 25 981.1 - -
27/06:30pm -3.9 -12.3 -10.7 59 - ENE 28 37 15 20 983.1 - -
27/06:00pm -4.8 -14.2 -10.7 63 - ENE 33 39 18 21 983.1 - -
27/05:30pm -4.8 -14.0 -10.5 64 - ENE 32 39 17 21 983.2 - -
27/05:00pm -5.2 -14.9 -10.3 67 - E 35 44 19 24 983.4 - -
27/04:30pm -5.8 -16.7 -11.1 66 - E 41 48 22 26 983.2 - -
27/04:00pm -6.2 -18.4 -10.8 70 - E 48 57 26 31 983.0 - -
27/03:30pm -6.7 -19.7 -11.6 68 - E 52 59 28 32 982.8 - -
27/03:00pm -7.0 -19.7 -11.9 68 - E 50 57 27 31 983.1 - -
27/02:30pm -7.4 -20.5 -12.6 66 - E 52 61 28 33 983.4 - -
27/02:00pm -7.6 -20.7 -12.8 66 - E 52 61 28 33 983.7 - -
27/01:30pm -8.1 -21.3 -13.5 65 - E 52 59 28 32 983.8 - -
27/01:00pm -8.3 -21.5 -13.5 66 - E 52 61 28 33 983.8 - -
27/12:30pm -8.5 -22.1 -13.9 65 - E 54 61 29 33 984.2 - -
27/12:00pm -8.3 -21.5 -14.5 61 - E 52 61 28 33 984.0 - -
27/11:30am -8.7 -21.9 -14.6 62 - E 52 61 28 33 984.4 - -
27/11:00am -9.1 -22.3 -15.0 62 - E 52 57 28 31 984.4 - -
27/10:30am -9.6 -23.3 -15.5 62 - E 54 61 29 33 984.5 - -
27/10:00am -9.8 -24.0 -15.7 62 - E 57 63 31 34 984.7 - -
27/09:30am -9.7 -23.3 -15.4 63 - E 54 61 29 33 984.6 - -
27/09:00am -9.7 -23.7 -15.8 61 - E 56 61 30 33 984.9 - -
27/08:30am -9.8 -23.5 -15.7 62 - E 54 61 29 33 984.8 - -
27/08:00am -10.4 -24.5 -16.4 61 - E 56 61 30 33 984.8 - -
27/07:30am -10.1 -23.4 -16.0 62 - E 52 57 28 31 985.2 - -
27/07:00am -9.6 -22.5 -15.7 61 - E 50 56 27 30 985.2 - -
27/06:30am -9.3 -21.8 -15.0 63 - E 48 54 26 29 985.5 - -
27/06:00am -9.5 -22.0 -15.4 62 - E 48 54 26 29 985.4 - -
27/05:30am -9.5 -21.6 -15.2 63 - E 46 50 25 27 985.5 - -
27/05:00am -9.1 -21.2 -14.8 63 - E 46 50 25 27 985.6 - -
27/04:30am -8.6 -20.1 -14.2 64 - E 43 48 23 26 985.6 - -
27/04:00am -8.1 -18.8 -13.5 65 - E 39 43 21 23 985.7 - -
27/03:30am -7.1 -16.6 -11.8 69 - E 33 37 18 20 985.8 - -
27/03:00am -6.0 -15.4 -10.6 70 - E 33 37 18 20 985.7 - -
27/02:30am -5.8 -14.9 -10.0 72 - E 32 37 17 20 985.8 - -
27/02:00am -5.4 -14.5 -9.8 71 - - 32 37 17 20 985.6 - -
27/01:30am -5.0 -14.3 -9.2 72 - E 33 37 18 20 985.7 - -
27/01:00am -4.7 -13.0 -8.8 73 - ENE 28 33 15 18 985.7 - -
27/12:30am -4.4 -13.9 -8.0 76 - ENE 35 41 19 22 985.6 - -
27/12:00am -4.2 -14.5 -7.6 77 - ENE 39 44 21 24 985.6 - -
 
Date/Time
EDT
Temp
°C
App
Temp
°C
Dew
Point
Rel
Hum
%
Delta-T
°C
Wind Press
QNH
hPa
Press
MSL
hPa
Rain
since 9 am
mm
Dir
 
Spd
km/h
Gust
km/h
Spd
kts
Gust
kts
26/11:00pm -3.5 -14.1 -7.3 75 - ENE 41 48 22 26 985.7 - -
26/10:30pm -3.5 -14.8 -8.2 70 - ENE 44 57 24 31 985.5 - -
26/10:00pm -3.1 -13.0 -7.6 71 - ENE 37 43 20 23 985.5 - -
26/09:30pm -3.3 -13.6 -7.6 72 - ENE 39 46 21 25 985.4 - -
26/09:00pm -3.3 -14.0 -8.5 67 - ENE 41 48 22 26 985.1 - -
26/08:30pm -3.3 -14.0 -8.3 68 - ENE 41 48 22 26 985.3 - -
26/08:00pm -3.1 -14.2 -8.3 67 - ENE 43 50 23 27 985.3 - -
26/07:30pm -3.3 -14.0 -8.3 68 - ENE 41 48 22 26 985.1 - -
26/07:00pm -3.4 -14.5 -8.6 67 - ENE 43 52 23 28 984.9 - -
26/06:30pm -3.3 -13.2 -8.3 68 - ENE 37 46 20 25 985.1 - -
26/06:00pm -3.3 -14.6 -8.7 66 - ENE 44 56 24 30 984.7 - -
26/05:30pm -3.4 -14.5 -8.6 67 - ENE 43 50 23 27 984.6 - -
26/05:00pm -3.3 -14.4 -8.5 67 - ENE 43 50 23 27 984.5 - -
26/04:30pm -4.5 -16.6 -8.9 71 - ENE 48 61 26 33 984.4 - -
26/04:00pm -4.7 -16.9 -9.7 68 - ENE 48 57 26 31 983.8 - -
26/03:30pm -5.5 -19.2 -10.1 70 - ENE 56 69 30 37 983.5 - -
26/03:00pm -5.9 -18.5 -11.2 66 - E 50 59 27 32 983.5 - -
26/02:30pm -6.3 -20.3 -12.0 64 - E 57 69 31 37 983.0 - -
26/02:00pm -6.5 -22.5 -12.8 61 - E 67 80 36 43 982.3 - -
26/01:30pm -7.6 -23.9 -12.3 69 - E 69 80 37 43 982.4 - -
26/01:00pm -7.6 -22.5 -13.2 64 - E 61 74 33 40 982.6 - -
26/12:30pm -8.2 -22.7 -13.8 64 - E 59 72 32 39 982.9 - -
26/12:00pm -8.2 -22.7 -14.4 61 - E 59 69 32 37 983.0 - -
26/11:30am -8.4 -23.0 -14.5 61 - E 59 67 32 36 983.0 - -
26/11:00am -8.8 -24.2 -15.3 59 - E 63 70 34 38 982.5 - -
26/10:30am -9.0 -24.7 -15.1 61 - E 65 74 35 40 982.3 - -
26/10:00am -9.1 -25.2 -15.4 60 - E 67 76 36 41 982.3 - -
26/09:30am -9.1 -25.2 -15.8 58 - E 67 76 36 41 981.8 - -
26/09:00am -9.3 -23.5 -15.6 60 - E 57 65 31 35 982.5 - -
26/08:30am -9.4 -23.4 -15.5 61 - E 56 63 30 34 982.6 - -
26/08:00am -9.3 -23.0 -15.6 60 - E 54 63 29 34 982.4 - -
26/07:30am -9.1 -22.7 -15.4 60 - E 54 61 29 33 982.5 - -
26/07:00am -8.9 -22.9 -15.2 60 - E 56 65 30 35 981.9 - -
26/06:30am -8.3 -22.5 -14.7 60 - E 57 65 31 35 981.7 - -
26/06:00am -7.8 -21.8 -14.0 61 - E 56 67 30 36 981.5 - -
26/05:30am -8.0 -22.5 -14.0 62 - E 59 67 32 36 981.1 - -
26/05:00am -8.1 -22.6 -14.1 62 - E 59 70 32 38 980.9 - -
26/04:30am -7.7 -22.2 -13.7 62 - E 59 67 32 36 980.7 - -
26/04:00am -7.6 -21.7 -13.4 63 - E 57 67 31 36 980.4 - -
26/03:30am -7.2 -20.7 -12.8 64 - E 54 61 29 33 980.1 - -
26/03:00am -6.8 -19.5 -12.1 66 - E 50 57 27 31 980.0 - -
26/02:30am -6.7 -18.2 -11.8 67 - E 44 52 24 28 980.4 - -
26/02:00am -6.2 -18.5 -11.1 68 - E 48 54 26 29 980.0 - -
26/01:30am -5.8 -18.8 -10.6 69 - ENE 52 59 28 32 979.7 - -
26/01:00am -5.6 -17.8 -10.4 69 - E 48 57 26 31 979.8 - -
26/12:30am -5.3 -16.7 -10.1 69 - E 44 52 24 28 979.7 - -
26/12:00am -5.2 -17.0 -9.8 70 - E 46 54 25 29 979.4 - -
 
Date/Time
EDT
Temp
°C
App
Temp
°C
Dew
Point
Rel
Hum
%
Delta-T
°C
Wind Press
QNH
hPa
Press
MSL
hPa
Rain
since 9 am
mm
Dir
 
Spd
km/h
Gust
km/h
Spd
kts
Gust
kts
25/11:30pm -5.0 -17.9 -9.6 70 - E 52 59 28 32 979.1 - -
25/11:00pm -4.7 -18.5 -9.1 71 - E 57 65 31 35 978.2 - -
25/10:30pm -4.6 -17.4 -8.9 72 - E 52 63 28 34 978.1 - -
25/10:00pm -4.4 -18.0 -8.8 71 - E 56 63 30 34 978.1 - -
25/09:30pm -4.1 -17.7 -8.4 72 - E 56 63 30 34 977.8 - -
25/09:00pm -3.9 -17.6 -7.5 76 - E 57 69 31 37 977.6 - -
25/08:30pm -3.5 -17.0 -7.4 74 - ENE 56 69 30 37 977.4 - -
25/08:00pm -3.2 -16.0 -8.1 69 - E 52 65 28 35 977.3 - -
25/07:30pm -3.4 -15.7 -7.2 75 - E 50 61 27 33 977.1 - -
25/07:00pm -3.6 -16.7 -7.9 72 - E 54 65 29 35 977.2 - -
25/06:30pm -3.6 -17.7 -7.4 75 - E 59 70 32 38 976.7 - -
25/06:00pm -3.9 -18.0 -8.0 73 - E 59 72 32 39 975.8 - -
25/05:30pm -3.9 -17.1 -8.5 70 - E 54 63 29 34 975.9 - -
25/05:00pm -4.2 -17.8 -8.3 73 - E 56 67 30 36 975.5 - -
25/04:30pm -4.3 -17.5 -8.4 73 - E 54 65 29 35 975.4 - -
25/04:00pm -5.0 -19.6 -8.9 74 - E 61 72 33 39 974.9 - -
25/03:30pm -5.1 -19.7 -9.2 73 - E 61 74 33 40 974.5 - -
25/03:00pm -5.4 -20.4 -9.6 72 - E 63 76 34 41 974.1 - -
25/02:30pm -5.6 -21.4 -9.8 72 - E 67 80 36 43 973.5 - -
25/02:00pm -6.1 -21.9 -10.1 73 - E 67 80 36 43 973.2 - -
25/01:30pm -6.4 -21.8 -10.3 74 - E 65 78 35 42 973.4 - -
25/01:01pm -6.6 -21.3 -11.3 69 - E 61 80 33 43 973.3 - -
25/01:00pm -6.8 -21.5 -10.5 75 - E 61 74 33 40 973.7 - -
25/12:30pm -7.3 -21.7 -11.8 70 - E 59 72 32 39 973.5 - -
25/12:18pm -7.2 -21.2 -12.1 68 - E 57 78 31 42 973.4 - -
25/12:00pm -7.8 -21.9 -12.5 69 - E 57 72 31 39 973.4 - -
25/11:30am -8.0 -22.5 -13.0 67 - E 59 76 32 41 973.7 - -
25/11:00am -8.0 -22.5 -13.6 64 - E 59 72 32 39 973.2 - -
25/10:40am -7.9 -22.5 -14.9 57 - E 59 80 32 43 973.7 - -
25/10:30am -8.4 -22.6 -15.2 58 - E 57 69 31 37 973.6 - -
25/10:11am -9.0 -22.6 -14.5 64 - E 54 72 29 39 973.5 - -
25/10:00am -9.3 -23.8 -14.3 67 - E 59 72 32 39 973.4 - -

Other Formats:

Comma delimited format used in spreadsheet applications
http://www.bom.gov.au/fwo/IDT60803/IDT60803.89570.axf

JavaScript Object Notation format (JSON) in row-major order
http://www.bom.gov.au/fwo/IDT60803/IDT60803.89570.json